Time;durP1;ratioP1;P1;durP2;ratioP2;P2;SDS_P1;SDS_P2;PMS_P1;PMS_P2;Temp;Humidity;BMP_temperature;BMP_pressure;BME280_temperature;BME280_humidity;BME280_pressure;Samples;Min_cycle;Max_cycle;Signal;HPM_P1;HPM_P2
2022/03/21 00:02:19;;;;;;;27.25;14.85;;;4.80;98.90;;;;;;4962534;28;20112;-88
2022/03/21 00:04:45;;;;;;;30.20;15.40;;;4.80;99.00;;;;;;4978707;28;20054;-88
2022/03/21 00:07:10;;;;;;;34.28;16.02;;;4.80;99.00;;;;;;4978199;28;20034;-88
2022/03/21 00:09:36;;;;;;;35.08;15.82;;;4.70;99.10;;;;;;4978347;28;20105;-88
2022/03/21 00:12:03;;;;;;;26.20;15.43;;;4.70;99.10;;;;;;4994277;28;20505;-88
2022/03/21 00:14:29;;;;;;;30.30;14.98;;;4.70;99.20;;;;;;4994609;28;20141;-88
2022/03/21 00:16:55;;;;;;;31.60;14.93;;;4.70;99.30;;;;;;4962023;28;20053;-88
2022/03/21 00:19:26;;;;;;;29.02;14.90;;;4.60;99.30;;;;;;4994408;28;20129;-88
2022/03/21 00:21:52;;;;;;;33.22;15.30;;;4.50;99.30;;;;;;4961988;28;20037;-88
2022/03/21 00:24:17;;;;;;;30.08;15.70;;;4.60;99.70;;;;;;4961761;28;20371;-88
2022/03/21 00:26:43;;;;;;;27.13;14.75;;;4.50;99.70;;;;;;4977364;28;20373;-87
2022/03/21 00:29:24;;;;;;;28.60;15.45;;;4.50;99.70;;;;;;4962827;28;20069;-88
2022/03/21 00:31:49;;;;;;;30.60;15.63;;;4.40;99.70;;;;;;4977624;28;20038;-88
2022/03/21 00:34:15;;;;;;;31.73;15.80;;;4.30;99.80;;;;;;4961718;28;20034;-87
2022/03/21 00:36:41;;;;;;;28.00;14.57;;;4.30;99.40;;;;;;4994334;28;20038;-88
2022/03/21 00:39:06;;;;;;;30.75;15.18;;;4.30;99.50;;;;;;4961445;28;20034;-88
2022/03/21 00:41:32;;;;;;;25.27;14.25;;;4.30;99.50;;;;;;4994126;28;20022;-88
2022/03/21 00:43:59;;;;;;;28.05;14.82;;;4.30;99.40;;;;;;4961279;28;20046;-88
2022/03/21 00:46:25;;;;;;;26.95;14.40;;;4.40;99.20;;;;;;4961568;28;20030;-88
2022/03/21 00:48:51;;;;;;;30.23;15.48;;;4.40;98.80;;;;;;4977396;28;20092;-88
2022/03/21 00:51:16;;;;;;;26.15;13.32;;;4.40;98.90;;;;;;4993750;28;20073;-88
2022/03/21 00:53:43;;;;;;;26.85;14.63;;;4.30;98.80;;;;;;4993332;28;20038;-88
2022/03/21 00:56:09;;;;;;;28.23;15.15;;;4.30;98.90;;;;;;4993591;28;20113;-88
2022/03/21 00:58:34;;;;;;;29.02;13.80;;;4.30;99.20;;;;;;4992755;28;20501;-88
2022/03/21 01:01:00;;;;;;;27.00;14.02;;;4.20;98.80;;;;;;4993642;28;20045;-88
2022/03/21 01:03:26;;;;;;;32.05;15.55;;;4.20;99.00;;;;;;4993358;28;20118;-88
2022/03/21 01:05:52;;;;;;;30.70;15.45;;;4.10;99.10;;;;;;4994356;28;20034;-88
2022/03/21 01:08:17;;;;;;;26.25;14.40;;;4.10;99.30;;;;;;4961174;28;20034;-88
2022/03/21 01:10:44;;;;;;;25.85;14.57;;;4.20;99.30;;;;;;4993459;28;20042;-88
2022/03/21 01:13:10;;;;;;;29.00;14.77;;;4.20;98.90;;;;;;4994573;28;20026;-88
2022/03/21 01:15:42;;;;;;;28.40;15.23;;;4.30;98.70;;;;;;4976979;28;20045;-88
2022/03/21 01:18:07;;;;;;;28.20;14.38;;;4.30;98.60;;;;;;4992747;28;20516;-88
2022/03/21 01:20:33;;;;;;;27.65;14.45;;;4.20;98.80;;;;;;4960704;28;20085;-88
2022/03/21 01:22:59;;;;;;;26.27;14.77;;;4.20;98.80;;;;;;4992791;28;20030;-87
2022/03/21 01:25:25;;;;;;;31.42;15.38;;;4.20;98.60;;;;;;4992816;28;20037;-88
2022/03/21 01:27:50;;;;;;;28.27;15.27;;;4.10;98.80;;;;;;4960331;28;20112;-88
2022/03/21 01:30:17;;;;;;;34.45;16.00;;;4.10;98.70;;;;;;4960563;28;20034;-88
2022/03/21 01:32:43;;;;;;;29.48;15.38;;;4.00;99.20;;;;;;4976992;28;20034;-88
2022/03/21 01:35:11;;;;;;;25.20;13.85;;;3.90;99.30;;;;;;4960752;28;20040;-88
2022/03/21 01:37:37;;;;;;;26.58;14.32;;;3.70;99.90;;;;;;4992757;28;20129;-88
2022/03/21 01:40:03;;;;;;;30.10;15.25;;;3.60;99.90;;;;;;4960678;28;20121;-88
2022/03/21 01:42:29;;;;;;;24.65;14.48;;;3.60;99.90;;;;;;4993825;28;20029;-88
2022/03/21 01:44:57;;;;;;;29.52;14.50;;;3.60;99.90;;;;;;4992873;28;20030;-87
2022/03/21 01:47:24;;;;;;;30.23;15.35;;;3.60;99.90;;;;;;4960557;28;20042;-87
2022/03/21 01:49:50;;;;;;;31.15;14.20;;;3.50;99.90;;;;;;4992680;28;20037;-87
2022/03/21 01:52:16;;;;;;;29.20;14.73;;;3.60;99.70;;;;;;4994013;28;20481;-86
2022/03/21 01:57:26;;;;;;;26.85;13.07;;;3.60;99.70;;;;;;4975410;28;20034;-87
2022/03/21 01:59:52;;;;;;;24.13;13.95;;;3.70;99.30;;;;;;4992215;28;20405;-85
2022/03/21 02:02:18;;;;;;;26.63;13.90;;;3.80;99.20;;;;;;4992352;28;20030;-86
2022/03/21 02:04:43;;;;;;;32.20;14.50;;;3.90;98.80;;;;;;4993798;28;20493;-87
2022/03/21 02:07:10;;;;;;;25.23;13.70;;;3.90;98.70;;;;;;4976201;28;20062;-86
2022/03/21 02:09:36;;;;;;;28.67;14.82;;;4.00;98.40;;;;;;4976311;28;20030;-87
2022/03/21 02:12:03;;;;;;;26.65;14.00;;;4.00;98.50;;;;;;4992870;28;20523;-87
2022/03/21 02:14:29;;;;;;;25.00;14.18;;;4.00;98.20;;;;;;4959890;28;20034;-86
2022/03/21 02:16:55;;;;;;;28.58;14.77;;;4.00;97.90;;;;;;4992040;28;20037;-86
2022/03/21 02:19:38;;;;;;;30.30;14.70;;;4.00;98.10;;;;;;4975970;28;20038;-87
2022/03/21 02:22:12;;;;;;;28.27;13.93;;;4.00;98.10;;;;;;4975773;28;20057;-86
2022/03/21 02:24:46;;;;;;;25.63;14.35;;;4.00;97.90;;;;;;4960433;28;20049;-86
2022/03/21 02:27:13;;;;;;;26.27;14.55;;;4.10;97.90;;;;;;4992142;28;20470;-87
2022/03/21 02:29:40;;;;;;;28.15;13.82;;;4.00;98.00;;;;;;4992316;28;20393;-86
2022/03/21 02:32:07;;;;;;;26.83;14.52;;;4.00;97.80;;;;;;4976297;28;20033;-86
2022/03/21 02:34:36;;;;;;;26.83;13.93;;;4.00;97.90;;;;;;4992505;28;20096;-86
2022/03/21 02:37:03;;;;;;;23.83;13.73;;;4.00;98.00;;;;;;4976001;28;20030;-86
2022/03/21 02:39:30;;;;;;;27.45;14.50;;;4.00;97.80;;;;;;4975870;28;20393;-86
2022/03/21 02:41:56;;;;;;;26.80;14.10;;;4.00;98.00;;;;;;4975859;28;20085;-87
2022/03/21 02:44:23;;;;;;;26.75;14.40;;;4.00;97.90;;;;;;4991604;28;20080;-86
2022/03/21 02:46:49;;;;;;;26.30;14.00;;;3.90;97.90;;;;;;4992978;28;20548;-86
2022/03/21 02:49:15;;;;;;;28.52;15.52;;;3.90;98.00;;;;;;4959887;28;20035;-86
2022/03/21 02:51:43;;;;;;;29.48;14.63;;;3.90;97.90;;;;;;4959641;28;20073;-86
2022/03/21 02:54:09;;;;;;;29.60;13.95;;;3.90;97.80;;;;;;4975752;28;20038;-86
2022/03/21 02:56:35;;;;;;;27.42;13.90;;;3.90;97.70;;;;;;4991861;28;20034;-86
2022/03/21 02:59:01;;;;;;;24.23;13.15;;;3.90;97.90;;;;;;4990904;28;20034;-86
2022/03/21 03:01:27;;;;;;;27.08;13.90;;;3.90;98.00;;;;;;4991241;28;20490;-86
2022/03/21 03:03:53;;;;;;;24.60;12.95;;;3.80;98.00;;;;;;4991881;28;20147;-86
2022/03/21 03:06:19;;;;;;;21.08;12.10;;;3.80;98.20;;;;;;4976015;28;20058;-86
2022/03/21 03:08:44;;;;;;;25.00;13.35;;;3.70;98.00;;;;;;4961576;28;20385;-86
2022/03/21 03:11:11;;;;;;;24.75;13.32;;;3.80;97.60;;;;;;4963203;28;20026;-86
2022/03/21 03:13:37;;;;;;;23.98;12.75;;;3.80;98.00;;;;;;4962952;28;20096;-86
2022/03/21 03:16:03;;;;;;;30.98;14.68;;;3.70;98.30;;;;;;4996565;28;20026;-87
2022/03/21 03:18:29;;;;;;;24.67;13.48;;;3.60;98.30;;;;;;4979051;28;20030;-86
2022/03/21 03:20:58;;;;;;;29.80;14.77;;;3.50;98.60;;;;;;4962994;28;20038;-84
2022/03/21 03:23:26;;;;;;;27.05;14.88;;;3.50;98.60;;;;;;4979254;28;20030;-86
2022/03/21 03:26:03;;;;;;;24.90;13.75;;;3.30;98.80;;;;;;4962981;28;20034;-86
2022/03/21 03:28:31;;;;;;;26.52;13.88;;;3.30;99.00;;;;;;4995375;28;20528;-87
2022/03/21 03:30:57;;;;;;;29.92;13.18;;;3.20;99.40;;;;;;4995305;28;20038;-87
2022/03/21 03:33:23;;;;;;;29.38;14.73;;;3.10;99.80;;;;;;4995218;28;20034;-87
2022/03/21 03:35:49;;;;;;;28.63;14.38;;;3.10;99.50;;;;;;4995047;28;20038;-86
2022/03/21 03:38:16;;;;;;;26.65;13.32;;;3.00;99.70;;;;;;4994114;28;20113;-86
2022/03/21 03:40:43;;;;;;;28.38;13.02;;;3.10;99.80;;;;;;4962471;28;20039;-87
2022/03/21 03:43:10;;;;;;;27.88;14.32;;;3.10;99.90;;;;;;4963056;28;20026;-86
2022/03/21 03:45:36;;;;;;;28.08;14.63;;;3.20;99.30;;;;;;4994496;28;20504;-86
2022/03/21 03:48:02;;;;;;;25.38;14.48;;;3.20;99.30;;;;;;4962066;28;20031;-86
2022/03/21 03:50:28;;;;;;;33.17;14.85;;;3.20;99.30;;;;;;4961825;28;20100;-87
2022/03/21 03:52:54;;;;;;;27.17;15.13;;;3.20;99.20;;;;;;4995710;28;20034;-86
2022/03/21 03:55:20;;;;;;;27.25;14.27;;;3.20;99.10;;;;;;4962358;28;20126;-86
2022/03/21 03:57:47;;;;;;;27.27;14.15;;;3.20;99.20;;;;;;4961524;28;20030;-87
2022/03/21 04:00:15;;;;;;;27.35;14.20;;;3.20;99.10;;;;;;4994392;28;20038;-86
2022/03/21 04:05:26;;;;;;;26.73;13.13;;;3.20;99.40;;;;;;4977874;28;20030;-86
2022/03/21 04:07:52;;;;;;;26.83;13.82;;;3.10;99.60;;;;;;4977647;28;20030;-86
2022/03/21 04:10:21;;;;;;;23.85;13.32;;;3.00;99.90;;;;;;4962039;28;20034;-87
2022/03/21 04:12:48;;;;;;;25.55;13.05;;;3.00;99.90;;;;;;4978240;28;20508;-86
2022/03/21 04:15:18;;;;;;;25.92;12.85;;;3.00;99.90;;;;;;4961691;28;20093;-89
2022/03/21 04:17:45;;;;;;;25.50;13.80;;;3.10;99.80;;;;;;4977036;28;20676;-89
2022/03/21 04:20:12;;;;;;;25.73;13.90;;;3.10;99.90;;;;;;4976797;28;20045;-86
2022/03/21 04:22:38;;;;;;;27.05;12.77;;;3.10;99.80;;;;;;4994719;28;20030;-87
2022/03/21 04:25:06;;;;;;;29.08;13.73;;;3.10;99.60;;;;;;4961355;28;20407;-87
2022/03/21 04:27:32;;;;;;;25.42;13.73;;;3.00;99.60;;;;;;4961204;28;20038;-87
2022/03/21 04:29:58;;;;;;;25.27;13.18;;;3.00;99.30;;;;;;4977533;28;20121;-85
2022/03/21 04:32:24;;;;;;;28.98;13.68;;;3.00;99.70;;;;;;4994102;28;20045;-86
2022/03/21 04:34:50;;;;;;;26.90;13.35;;;3.00;99.90;;;;;;4977374;28;20474;-86
2022/03/21 04:37:15;;;;;;;26.98;13.10;;;2.90;99.90;;;;;;4960838;28;20026;-86
2022/03/21 04:39:41;;;;;;;24.50;14.27;;;2.90;99.90;;;;;;4993475;28;20046;-86
2022/03/21 04:42:07;;;;;;;23.55;13.48;;;2.90;99.90;;;;;;4994233;28;20034;-86
2022/03/21 04:44:33;;;;;;;29.55;13.45;;;2.90;99.90;;;;;;4961781;28;20386;-86
2022/03/21 04:46:58;;;;;;;26.20;13.65;;;2.90;99.90;;;;;;4993304;28;20448;-89
2022/03/21 04:49:24;;;;;;;24.52;14.23;;;2.90;99.90;;;;;;4961325;28;20485;-89
2022/03/21 04:51:50;;;;;;;24.23;13.85;;;2.90;99.90;;;;;;4961159;28;20565;-89
2022/03/21 04:54:16;;;;;;;29.98;13.90;;;2.80;99.90;;;;;;4992971;28;20145;-89
2022/03/21 04:56:42;;;;;;;30.13;13.48;;;2.70;99.90;;;;;;4961127;28;20043;-89
2022/03/21 04:59:08;;;;;;;27.73;14.07;;;2.70;99.90;;;;;;4960612;28;20065;-89
2022/03/21 05:01:34;;;;;;;29.88;12.98;;;2.60;99.90;;;;;;4993506;28;20129;-86
2022/03/21 05:04:00;;;;;;;29.77;13.85;;;2.60;99.90;;;;;;4978335;28;20386;-86
2022/03/21 05:06:25;;;;;;;25.17;13.60;;;2.60;99.90;;;;;;4977457;28;20026;-87
2022/03/21 05:08:51;;;;;;;32.22;14.60;;;2.60;99.90;;;;;;4977112;28;20061;-87
2022/03/21 05:11:17;;;;;;;28.30;13.55;;;2.60;99.90;;;;;;4960794;28;20027;-86
2022/03/21 05:13:43;;;;;;;28.48;12.60;;;2.60;99.90;;;;;;4993514;28;20049;-86
2022/03/21 05:16:09;;;;;;;24.80;13.25;;;2.50;99.90;;;;;;4961439;28;20121;-86
2022/03/21 05:18:38;;;;;;;31.23;15.00;;;2.60;99.90;;;;;;4960477;28;20390;-87
2022/03/21 05:21:05;;;;;;;29.13;13.27;;;2.50;99.90;;;;;;4960651;28;20154;-86
2022/03/21 05:32:04;;;;;;;26.42;13.77;;;2.10;99.90;;;;;;4964519;28;20046;-83
2022/03/21 05:37:14;;;;;;;26.77;14.05;;;2.00;99.90;;;;;;4992958;28;20046;-82
2022/03/21 05:40:31;;;;;;;27.05;13.32;;;1.90;99.90;;;;;;4976087;28;20042;-83
2022/03/21 05:42:27;;;;;;;27.25;13.75;;;1.90;99.90;;;;;;4991820;28;20125;-83
2022/03/21 05:44:53;;;;;;;30.33;13.75;;;1.90;99.90;;;;;;4959970;28;20062;-86
2022/03/21 05:47:20;;;;;;;27.75;13.88;;;1.80;99.90;;;;;;4993406;28;20054;-85
2022/03/21 05:49:45;;;;;;;30.88;14.35;;;1.80;99.90;;;;;;4959965;28;20030;-85
2022/03/21 05:52:11;;;;;;;27.08;12.35;;;1.80;99.90;;;;;;4960125;28;20101;-85
2022/03/21 05:54:37;;;;;;;29.23;14.52;;;1.90;99.90;;;;;;4975988;28;20038;-85
2022/03/21 05:57:03;;;;;;;25.52;14.32;;;1.90;99.90;;;;;;4975901;28;20038;-85
2022/03/21 06:02:14;;;;;;;27.30;14.30;;;2.00;99.90;;;;;;4975362;28;20034;-82
2022/03/21 06:04:40;;;;;;;29.75;14.55;;;2.10;99.90;;;;;;4975299;28;20025;-83
2022/03/21 06:07:06;;;;;;;30.63;14.95;;;2.10;99.90;;;;;;4958805;28;20085;-83
2022/03/21 06:09:31;;;;;;;38.83;14.88;;;2.30;99.90;;;;;;4975529;28;20038;-83
2022/03/21 06:11:58;;;;;;;27.40;14.15;;;2.30;99.90;;;;;;4991384;28;20038;-83
2022/03/21 06:14:23;;;;;;;32.10;13.88;;;2.50;99.90;;;;;;4974872;28;20087;-83
2022/03/21 06:16:49;;;;;;;27.38;13.77;;;2.60;99.90;;;;;;4975254;28;20030;-82
2022/03/21 06:19:15;;;;;;;29.45;14.45;;;2.70;99.90;;;;;;4991321;28;20100;-85
2022/03/21 06:21:41;;;;;;;27.73;14.25;;;2.80;99.90;;;;;;4975719;28;20031;-83
2022/03/21 06:24:08;;;;;;;31.42;16.15;;;2.90;99.90;;;;;;4975484;28;20034;-83
2022/03/21 06:26:34;;;;;;;46.45;16.70;;;2.90;99.90;;;;;;4959211;28;20104;-82
2022/03/21 06:28:59;;;;;;;40.00;16.88;;;3.10;99.90;;;;;;4975250;28;20529;-83
2022/03/21 06:31:25;;;;;;;35.85;17.38;;;3.20;99.90;;;;;;4959259;28;20058;-84
2022/03/21 06:33:51;;;;;;;39.13;18.15;;;3.20;99.90;;;;;;4959471;28;20490;-84
2022/03/21 06:36:17;;;;;;;42.47;19.33;;;3.30;99.90;;;;;;4992731;28;20842;-84
2022/03/21 06:38:43;;;;;;;55.85;23.77;;;3.30;99.90;;;;;;4991131;28;20122;-83
2022/03/21 06:41:33;;;;;;;42.72;19.75;;;3.40;99.90;;;;;;4975285;28;20038;-83
2022/03/21 06:43:59;;;;;;;37.88;17.98;;;3.40;99.90;;;;;;4978113;28;20113;-83
2022/03/21 06:46:25;;;;;;;36.03;16.92;;;3.50;99.90;;;;;;4995229;28;20065;-83
2022/03/21 06:48:50;;;;;;;33.92;17.52;;;3.60;99.90;;;;;;4978674;28;20518;-84
2022/03/21 06:51:16;;;;;;;39.55;17.30;;;3.60;99.90;;;;;;4978908;28;20878;-84
2022/03/21 06:53:42;;;;;;;26.73;15.10;;;3.70;99.90;;;;;;4962763;28;20474;-84
2022/03/21 06:56:07;;;;;;;27.42;14.93;;;3.80;99.90;;;;;;4978408;28;20080;-84
2022/03/21 06:58:34;;;;;;;26.13;14.20;;;3.80;99.90;;;;;;4962927;28;20026;-84
2022/03/21 07:00:59;;;;;;;26.98;13.77;;;3.90;99.90;;;;;;4963002;28;20034;-83
2022/03/21 07:03:26;;;;;;;28.77;14.15;;;4.00;99.90;;;;;;4963027;28;20022;-84
2022/03/21 07:05:52;;;;;;;26.20;14.23;;;4.10;99.90;;;;;;4962827;28;20388;-84
2022/03/21 07:08:18;;;;;;;29.70;14.15;;;4.20;99.90;;;;;;4962332;28;20042;-84
2022/03/21 07:10:44;;;;;;;30.02;14.23;;;4.30;99.90;;;;;;4978852;28;20034;-84
2022/03/21 07:13:10;;;;;;;31.98;15.77;;;4.50;99.90;;;;;;4963731;28;20405;-84
2022/03/21 07:15:39;;;;;;;33.00;16.83;;;4.70;99.90;;;;;;4979094;28;20027;-84
2022/03/21 07:18:06;;;;;;;25.70;13.43;;;4.80;99.90;;;;;;4964768;28;20137;-83
2022/03/21 07:20:32;;;;;;;26.75;13.55;;;4.90;99.90;;;;;;4994933;28;20038;-84
2022/03/21 07:22:59;;;;;;;28.83;14.98;;;5.10;99.90;;;;;;4995861;28;20065;-83
2022/03/21 07:25:40;;;;;;;26.40;14.18;;;5.20;99.90;;;;;;4978368;28;20026;-84
2022/03/21 07:28:06;;;;;;;25.17;13.57;;;5.40;99.90;;;;;;4995597;28;20045;-84
2022/03/21 07:30:32;;;;;;;27.10;15.63;;;5.50;99.90;;;;;;4962056;28;20038;-83
2022/03/21 07:32:59;;;;;;;28.80;14.25;;;5.70;99.90;;;;;;4995953;28;20178;-83
2022/03/21 07:36:11;;;;;;;30.17;15.07;;;5.80;99.90;;;;;;4995820;28;20034;-84
2022/03/21 07:38:37;;;;;;;23.85;14.15;;;5.90;99.70;;;;;;4979520;28;20034;-83
2022/03/21 07:41:08;;;;;;;28.00;14.93;;;6.00;99.10;;;;;;4961792;28;20037;-84
2022/03/21 07:43:35;;;;;;;28.13;14.13;;;6.00;98.80;;;;;;4978356;28;20832;-83
2022/03/21 07:48:45;;;;;;;26.80;13.80;;;6.10;99.10;;;;;;4993907;28;20041;-83
2022/03/21 07:51:11;;;;;;;27.52;14.55;;;6.10;98.50;;;;;;4995485;28;20034;-84
2022/03/21 07:53:37;;;;;;;28.60;14.93;;;6.20;98.60;;;;;;4993185;28;20367;-83
2022/03/21 07:56:03;;;;;;;23.75;14.00;;;6.30;98.10;;;;;;4961043;28;20030;-84
2022/03/21 07:58:31;;;;;;;25.63;14.98;;;6.30;97.50;;;;;;4993597;28;20142;-84
2022/03/21 08:00:58;;;;;;;25.50;14.68;;;6.40;98.00;;;;;;4961758;28;20034;-83
2022/03/21 08:03:24;;;;;;;27.33;15.25;;;6.50;96.90;;;;;;4961761;28;20058;-82
2022/03/21 08:05:50;;;;;;;25.13;14.00;;;6.60;96.90;;;;;;4993760;28;20045;-83
2022/03/21 08:08:16;;;;;;;25.17;13.70;;;6.60;96.30;;;;;;4961526;28;20033;-83
2022/03/21 08:10:42;;;;;;;29.30;15.05;;;6.60;96.30;;;;;;4993855;28;20436;-83
2022/03/21 08:13:13;;;;;;;25.80;13.68;;;6.60;97.30;;;;;;4961994;28;20058;-83
2022/03/21 08:15:39;;;;;;;24.05;15.32;;;6.70;97.00;;;;;;4977431;28;20038;-84
2022/03/21 08:18:05;;;;;;;25.38;14.55;;;6.80;97.20;;;;;;4961588;28;20030;-84
2022/03/21 08:20:33;;;;;;;22.90;13.93;;;6.80;97.30;;;;;;4961521;28;20038;-83
2022/03/21 08:23:01;;;;;;;29.50;14.75;;;7.00;96.70;;;;;;4961636;28;20421;-84
2022/03/21 08:25:27;;;;;;;26.05;14.13;;;7.10;96.40;;;;;;4977598;28;20050;-84
2022/03/21 08:27:53;;;;;;;31.40;15.52;;;7.20;96.20;;;;;;4960976;28;20041;-84
2022/03/21 08:30:19;;;;;;;26.13;14.68;;;7.30;96.70;;;;;;4961216;28;20117;-84
2022/03/21 08:32:46;;;;;;;24.38;14.15;;;7.50;96.50;;;;;;4993562;28;20038;-84
2022/03/21 08:35:12;;;;;;;27.25;15.40;;;7.60;95.80;;;;;;4961302;28;20034;-84
2022/03/21 08:37:37;;;;;;;24.13;14.48;;;7.60;95.60;;;;;;4961315;28;20550;-84
2022/03/21 08:40:04;;;;;;;25.48;14.98;;;7.70;95.90;;;;;;4961365;28;20041;-83
2022/03/21 08:42:29;;;;;;;28.73;15.25;;;7.90;94.80;;;;;;4977178;28;20478;-84
2022/03/21 08:44:56;;;;;;;30.25;14.90;;;8.00;94.70;;;;;;4995221;28;20034;-84
2022/03/21 08:47:23;;;;;;;27.77;15.20;;;8.20;93.60;;;;;;4993323;28;20037;-84
2022/03/21 08:49:49;;;;;;;28.88;14.65;;;8.90;93.20;;;;;;4995101;28;20034;-84
2022/03/21 08:52:15;;;;;;;29.40;14.90;;;9.90;91.80;;;;;;4993003;28;20140;-84
2022/03/21 08:54:41;;;;;;;25.48;14.88;;;10.80;89.50;;;;;;4992823;28;20038;-84
2022/03/21 08:57:07;;;;;;;27.10;14.82;;;11.80;82.20;;;;;;4976746;28;20047;-84
2022/03/21 08:59:33;;;;;;;26.80;14.85;;;12.00;78.50;;;;;;4993148;28;20030;-84
2022/03/21 09:01:59;;;;;;;27.05;15.27;;;12.80;75.80;;;;;;4994487;28;20034;-84
2022/03/21 09:04:25;;;;;;;23.55;15.32;;;13.40;71.60;;;;;;4993563;28;20050;-84
2022/03/21 09:06:50;;;;;;;22.63;14.77;;;13.30;69.20;;;;;;4992927;28;20023;-84
2022/03/21 09:09:18;;;;;;;25.20;15.23;;;13.60;69.10;;;;;;4993153;28;20038;-85
2022/03/21 09:11:44;;;;;;;24.13;15.35;;;14.10;68.60;;;;;;4992755;28;20060;-84
2022/03/21 09:14:10;;;;;;;26.98;16.90;;;14.50;66.20;;;;;;4960313;28;20092;-84
2022/03/21 09:16:38;;;;;;;28.45;15.02;;;13.90;66.00;;;;;;4976745;28;20481;-84
2022/03/21 09:19:04;;;;;;;29.15;16.02;;;13.70;67.30;;;;;;4960154;28;20042;-84
2022/03/21 09:21:30;;;;;;;28.90;14.55;;;13.50;66.30;;;;;;4960246;28;20022;-84
2022/03/21 09:23:57;;;;;;;24.00;15.32;;;13.20;66.30;;;;;;4960130;28;20030;-84
2022/03/21 09:26:38;;;;;;;29.73;17.00;;;13.00;68.40;;;;;;4976233;28;20513;-84
2022/03/21 09:29:04;;;;;;;27.83;15.48;;;12.80;68.50;;;;;;4975970;28;20038;-84
2022/03/21 09:31:33;;;;;;;23.88;15.88;;;13.20;70.20;;;;;;4959335;28;20390;-84
2022/03/21 09:33:59;;;;;;;21.20;15.13;;;13.00;69.40;;;;;;4975962;28;20134;-84
2022/03/21 09:36:26;;;;;;;26.35;14.77;;;13.30;70.40;;;;;;4959734;28;20080;-84
2022/03/21 09:38:52;;;;;;;22.65;15.20;;;13.60;69.40;;;;;;4993033;28;20390;-84
2022/03/21 09:41:23;;;;;;;22.38;14.15;;;13.50;67.90;;;;;;4960186;28;20482;-84
2022/03/21 09:43:54;;;;;;;23.02;15.05;;;13.90;68.30;;;;;;4993500;28;20113;-84
2022/03/21 09:46:20;;;;;;;24.00;14.77;;;14.40;67.70;;;;;;4993435;28;20097;-85
2022/03/21 09:48:51;;;;;;;29.65;15.75;;;14.70;65.00;;;;;;4992251;28;20478;-84
2022/03/21 09:51:21;;;;;;;26.27;16.52;;;14.60;65.10;;;;;;4992543;28;20533;-84
2022/03/21 09:53:50;;;;;;;26.65;16.33;;;14.60;66.50;;;;;;4959846;28;20854;-84
2022/03/21 09:56:17;;;;;;;22.48;14.90;;;15.50;64.60;;;;;;4975928;28;20031;-84
2022/03/21 09:58:44;;;;;;;25.38;16.25;;;15.30;63.20;;;;;;4975728;28;20493;-84
2022/03/21 10:01:11;;;;;;;24.05;15.77;;;15.20;64.00;;;;;;4959916;28;20037;-84
2022/03/21 10:03:41;;;;;;;26.00;16.63;;;15.10;63.80;;;;;;4960198;28;20049;-84
2022/03/21 10:06:35;;;;;;;22.23;15.57;;;15.50;65.00;;;;;;4975865;28;20026;-84
2022/03/21 10:09:18;;;;;;;25.38;15.70;;;15.90;62.10;;;;;;4959315;28;20030;-84
2022/03/21 10:11:52;;;;;;;25.58;16.05;;;15.50;62.50;;;;;;4959926;28;20033;-84
2022/03/21 10:14:36;;;;;;;24.90;15.80;;;15.10;63.00;;;;;;4975827;28;20023;-84
2022/03/21 10:17:07;;;;;;;23.48;16.13;;;15.30;63.40;;;;;;4959632;28;20031;-84
2022/03/21 10:20:00;;;;;;;24.73;16.65;;;15.50;62.70;;;;;;4963369;28;20046;-84
2022/03/21 10:22:43;;;;;;;26.13;17.23;;;15.70;61.00;;;;;;4979430;28;20105;-84
2022/03/21 10:25:17;;;;;;;24.83;15.40;;;15.40;60.40;;;;;;4963864;28;20053;-84
2022/03/21 10:27:45;;;;;;;22.75;16.23;;;14.70;62.30;;;;;;4963459;28;20439;-84
2022/03/21 10:30:15;;;;;;;27.92;16.58;;;14.80;63.70;;;;;;4979900;28;20389;-84
2022/03/21 10:32:46;;;;;;;26.60;16.63;;;14.40;62.70;;;;;;4979845;28;20386;-84
2022/03/21 10:35:28;;;;;;;;;;;14.90;62.50;;;;;;4981764;28;20355;-84
2022/03/21 10:37:58;;;;;;;23.45;16.30;;;15.10;63.30;;;;;;4963305;28;19910;-84
2022/03/21 10:40:31;;;;;;;27.17;16.65;;;15.70;62.30;;;;;;4979473;28;20033;-85
2022/03/21 10:43:07;;;;;;;25.13;15.57;;;15.30;60.60;;;;;;4963359;28;20056;-84
2022/03/21 10:45:38;;;;;;;23.35;15.93;;;15.00;63.00;;;;;;4963458;28;20077;-84
2022/03/21 10:48:07;;;;;;;32.45;17.05;;;14.90;63.00;;;;;;4962540;28;20030;-84
2022/03/21 10:50:46;;;;;;;25.10;16.27;;;14.20;63.60;;;;;;4997359;28;20034;-84
2022/03/21 10:53:17;;;;;;;24.67;15.52;;;14.20;66.40;;;;;;4962821;28;20607;-84
2022/03/21 10:55:46;;;;;;;27.52;16.40;;;14.70;65.60;;;;;;4996475;28;20117;-84
2022/03/21 10:58:14;;;;;;;27.55;16.85;;;15.60;65.00;;;;;;4979348;28;20034;-84
2022/03/21 11:00:40;;;;;;;25.27;17.05;;;16.30;61.90;;;;;;4996571;28;20493;-84
2022/03/21 11:03:14;;;;;;;27.15;18.30;;;16.40;61.00;;;;;;4978964;28;20080;-84
2022/03/21 11:05:42;;;;;;;27.23;17.20;;;16.00;60.00;;;;;;4963124;28;20505;-84
2022/03/21 11:08:11;;;;;;;25.15;17.30;;;16.00;62.60;;;;;;4995021;28;20038;-84
2022/03/21 11:10:37;;;;;;;30.95;15.95;;;16.40;61.40;;;;;;4978529;28;20091;-83
2022/03/21 11:13:05;;;;;;;29.08;18.17;;;16.00;62.00;;;;;;4979125;28;20477;-84
2022/03/21 11:15:33;;;;;;;29.05;17.98;;;15.50;60.70;;;;;;4978942;28;20057;-84
2022/03/21 11:17:59;;;;;;;28.17;17.02;;;15.20;61.00;;;;;;4978971;28;20040;-84
2022/03/21 11:20:29;;;;;;;28.98;18.10;;;15.20;64.70;;;;;;4995246;28;20085;-84
2022/03/21 11:22:56;;;;;;;28.50;17.58;;;15.00;63.00;;;;;;4995118;28;20030;-84
2022/03/21 11:25:25;;;;;;;27.45;17.00;;;14.90;66.50;;;;;;4994839;28;20034;-84
2022/03/21 11:28:05;;;;;;;26.65;15.63;;;15.30;64.60;;;;;;4995020;28;20434;-84
2022/03/21 11:30:48;;;;;;;29.23;17.43;;;15.90;63.00;;;;;;4962524;28;20088;-84
2022/03/21 11:33:46;;;;;;;28.63;17.35;;;15.90;63.00;;;;;;4994358;28;20030;-84
2022/03/21 11:36:48;;;;;;;33.55;17.67;;;15.70;61.40;;;;;;4978500;28;20706;-84
2022/03/21 11:39:33;;;;;;;27.70;16.98;;;15.50;63.00;;;;;;4995576;28;20117;-84
2022/03/21 11:42:06;;;;;;;25.50;17.00;;;15.60;62.30;;;;;;4961776;28;20037;-84
2022/03/21 11:44:32;;;;;;;28.40;16.42;;;15.80;63.20;;;;;;4978017;28;20042;-84
2022/03/21 11:47:28;;;;;;;28.52;17.25;;;16.20;63.00;;;;;;4977937;28;20643;-84
2022/03/21 11:49:55;;;;;;;32.13;17.35;;;16.40;59.70;;;;;;4966671;28;20078;-84
2022/03/21 11:52:22;;;;;;;24.80;16.83;;;16.10;59.60;;;;;;4962231;28;20068;-84
2022/03/21 11:54:48;;;;;;;27.08;16.30;;;15.70;59.10;;;;;;4994124;28;20130;-84
2022/03/21 11:57:17;;;;;;;31.85;16.80;;;15.00;60.60;;;;;;4993727;28;20069;-83
2022/03/21 11:59:43;;;;;;;25.92;15.43;;;14.50;61.50;;;;;;4993155;28;20038;-84
2022/03/21 12:02:12;;;;;;;27.48;15.68;;;14.70;62.00;;;;;;4993603;28;20131;-85
2022/03/21 12:04:39;;;;;;;31.27;16.48;;;15.10;60.90;;;;;;4961318;28;20081;-84
2022/03/21 12:07:11;;;;;;;28.73;16.20;;;15.70;61.70;;;;;;4977894;28;20057;-84
2022/03/21 12:09:48;;;;;;;27.40;15.63;;;16.90;59.30;;;;;;4981913;28;20038;-84
2022/03/21 12:12:15;;;;;;;27.30;15.77;;;17.10;57.00;;;;;;4979406;28;20042;-84
2022/03/21 12:14:45;;;;;;;32.35;17.23;;;17.30;57.90;;;;;;4995962;28;20034;-84
2022/03/21 12:17:11;;;;;;;31.20;16.70;;;17.00;57.50;;;;;;4993485;28;20084;-84
2022/03/21 12:19:54;;;;;;;27.00;16.48;;;16.70;57.70;;;;;;4961232;28;20038;-84
2022/03/21 12:24:58;;;;;;;28.02;15.15;;;15.80;58.50;;;;;;4977407;28;20035;-83
2022/03/21 12:27:40;;;;;;;26.52;16.33;;;15.70;59.80;;;;;;4961213;28;20061;-84
2022/03/21 12:32:52;;;;;;;28.40;15.63;;;15.30;60.20;;;;;;4977179;28;20049;-84
2022/03/21 12:35:39;;;;;;;30.52;15.50;;;15.20;61.30;;;;;;4979497;28;20034;-84
2022/03/21 12:38:14;;;;;;;31.38;16.05;;;15.30;59.80;;;;;;4977160;28;20070;-84
2022/03/21 12:41:03;;;;;;;29.60;15.25;;;15.30;59.50;;;;;;4976272;28;20034;-85
2022/03/21 12:43:33;;;;;;;26.23;16.25;;;15.50;60.40;;;;;;4993302;28;20109;-84
2022/03/21 12:46:04;;;;;;;25.67;16.50;;;15.70;60.10;;;;;;4994991;28;20050;-84
2022/03/21 12:48:31;;;;;;;24.90;15.07;;;15.90;59.60;;;;;;4977668;28;20030;-84
2022/03/21 12:50:57;;;;;;;26.92;15.07;;;16.10;59.40;;;;;;4960668;28;20034;-84
2022/03/21 12:53:23;;;;;;;32.30;16.15;;;16.60;57.80;;;;;;4993065;28;20105;-84
2022/03/21 12:56:01;;;;;;;29.73;15.82;;;16.60;58.50;;;;;;4959917;28;20050;-84
2022/03/21 12:58:30;;;;;;;24.90;14.80;;;16.40;58.10;;;;;;4976311;28;20038;-84
2022/03/21 13:01:00;;;;;;;25.35;15.30;;;16.40;58.30;;;;;;4992801;28;20594;-84
2022/03/21 13:03:26;;;;;;;27.25;15.85;;;16.60;57.90;;;;;;4960432;28;20073;-84
2022/03/21 13:11:39;;;;;;;26.58;16.50;;;16.00;59.10;;;;;;4993723;28;20041;-84
2022/03/21 13:14:17;;;;;;;25.95;15.90;;;16.20;58.90;;;;;;4976519;28;20027;-84